2CUTH EGBS-EGPE

Flight info

Callsign 2CUTH
Flight time N/A
Altitude 5000
Route VFR
Aircraft BE36/L-SBDFGRY/S

Departure

Time 2026-04-20 07:58
Airport Shobdon Airfield (EGBS)

Arrival

Time N/A
Airport Inverness Airport (EGPE)
Time Latitude Longitude Altitude Speed Heading
2026-04-20 07:51 52.24279 -2.87931 324 ft 0 kts 146°
2026-04-20 07:55 52.24262 -2.87981 325 ft 12 kts 258°
2026-04-20 07:56 52.24201 -2.88080 324 ft 18 kts 195°
2026-04-20 07:56 52.24152 -2.88317 325 ft 29 kts 263°
2026-04-20 07:56 52.24130 -2.88583 327 ft 14 kts 262°
2026-04-20 07:56 52.24117 -2.88722 327 ft 12 kts 269°
2026-04-20 07:57 52.24124 -2.88850 325 ft 8 kts 246°
2026-04-20 07:57 52.24110 -2.88850 326 ft 3 kts 105°
2026-04-20 07:57 52.24110 -2.88836 326 ft 0 kts 82°
2026-04-20 07:57 52.24134 -2.88548 327 ft 60 kts 83°
2026-04-20 07:58 52.24223 -2.87623 415 ft 95 kts 76°
2026-04-20 07:58 52.24388 -2.86521 675 ft 105 kts 75°
2026-04-20 07:58 52.24569 -2.85343 1038 ft 107 kts 75°
2026-04-20 07:58 52.24769 -2.84176 1383 ft 107 kts 62°
2026-04-20 07:59 52.25407 -2.83742 1720 ft 111 kts 342°
2026-04-20 07:59 52.26078 -2.84398 2024 ft 114 kts 331°
2026-04-20 07:59 52.26757 -2.85069 2364 ft 115 kts 330°
2026-04-20 07:59 52.27442 -2.85764 2725 ft 116 kts 330°
2026-04-20 08:00 52.28135 -2.86469 3064 ft 118 kts 329°
2026-04-20 08:00 52.28832 -2.87175 3325 ft 118 kts 329°
2026-04-20 08:00 52.29532 -2.87877 3624 ft 118 kts 330°
2026-04-20 08:00 52.30236 -2.88585 3999 ft 119 kts 329°
2026-04-20 08:01 52.30998 -2.89037 4329 ft 118 kts 346°
2026-04-20 08:01 52.31789 -2.89418 4638 ft 119 kts 345°
2026-04-20 08:01 52.32585 -2.89799 4952 ft 120 kts 345°
2026-04-20 08:01 52.33458 -2.90209 4993 ft 141 kts 346°
2026-04-20 08:02 52.34466 -2.90673 4997 ft 157 kts 346°
2026-04-20 08:02 52.35540 -2.91161 4993 ft 162 kts 346°
2026-04-20 08:02 52.36632 -2.91661 4994 ft 163 kts 346°
2026-04-20 08:02 52.37732 -2.92164 4996 ft 164 kts 346°
2026-04-20 08:03 52.38837 -2.92667 4999 ft 165 kts 346°
2026-04-20 08:03 52.39927 -2.93167 5013 ft 165 kts 346°
2026-04-20 08:03 52.41041 -2.93676 5023 ft 166 kts 346°
2026-04-20 08:03 52.42163 -2.94184 5019 ft 168 kts 346°
2026-04-20 08:04 52.43295 -2.94699 5013 ft 168 kts 346°
2026-04-20 08:04 52.44428 -2.95216 5021 ft 169 kts 346°
2026-04-20 08:04 52.45558 -2.95735 5013 ft 168 kts 345°
2026-04-20 08:04 52.46685 -2.96244 5017 ft 168 kts 346°
2026-04-20 08:05 52.47818 -2.96755 5015 ft 169 kts 346°
2026-04-20 08:05 52.48936 -2.97260 5017 ft 168 kts 346°
2026-04-20 08:05 52.50060 -2.97767 5015 ft 168 kts 346°
2026-04-20 08:05 52.51184 -2.98275 5015 ft 167 kts 346°
2026-04-20 08:06 52.52312 -2.98783 5012 ft 167 kts 346°
2026-04-20 08:06 52.53437 -2.99290 5014 ft 168 kts 346°
2026-04-20 08:06 52.54571 -2.99798 5015 ft 169 kts 346°
2026-04-20 08:06 52.55706 -3.00316 5011 ft 169 kts 346°
2026-04-20 08:07 52.56838 -3.00822 5011 ft 169 kts 346°
2026-04-20 08:07 52.57958 -3.01322 5013 ft 169 kts 346°
2026-04-20 08:07 52.59095 -3.01826 5015 ft 168 kts 346°
2026-04-20 08:07 52.60222 -3.02336 5012 ft 167 kts 346°
2026-04-20 08:08 52.61345 -3.02836 5014 ft 167 kts 346°
2026-04-20 08:08 52.62468 -3.03338 5013 ft 167 kts 346°
2026-04-20 08:08 52.63597 -3.03841 5011 ft 168 kts 346°
2026-04-20 08:08 52.64728 -3.04346 5012 ft 168 kts 346°
2026-04-20 08:09 52.65863 -3.04839 5013 ft 168 kts 346°
2026-04-20 08:09 52.66986 -3.05332 5018 ft 171 kts 345°
2026-04-20 08:09 52.68136 -3.05854 5009 ft 170 kts 346°
2026-04-20 08:09 52.69283 -3.06368 5011 ft 170 kts 346°
2026-04-20 08:10 52.70429 -3.06878 5010 ft 170 kts 346°
2026-04-20 08:10 52.71570 -3.07385 5011 ft 170 kts 346°
2026-04-20 08:10 52.72694 -3.07883 5016 ft 169 kts 346°
2026-04-20 08:10 52.73835 -3.08385 5011 ft 169 kts 346°
2026-04-20 08:11 52.74978 -3.08887 5015 ft 170 kts 345°
2026-04-20 08:11 52.76124 -3.09399 5016 ft 170 kts 346°
2026-04-20 08:11 52.77269 -3.09908 5011 ft 169 kts 346°
2026-04-20 08:11 52.78404 -3.10411 5014 ft 170 kts 346°
2026-04-20 08:12 52.79551 -3.10916 5008 ft 170 kts 346°
2026-04-20 08:12 52.80682 -3.11420 5008 ft 171 kts 346°
2026-04-20 08:12 52.81825 -3.11929 5011 ft 170 kts 345°
2026-04-20 08:12 52.82971 -3.12447 5014 ft 170 kts 346°
2026-04-20 08:13 52.84114 -3.12951 5012 ft 170 kts 346°
2026-04-20 08:13 52.85253 -3.13454 5004 ft 169 kts 346°
2026-04-20 08:13 52.86384 -3.13959 5010 ft 168 kts 345°
2026-04-20 08:13 52.87520 -3.14465 5008 ft 168 kts 346°
2026-04-20 08:14 52.88650 -3.14969 5003 ft 168 kts 346°
2026-04-20 08:14 52.89791 -3.15482 5012 ft 171 kts 346°
2026-04-20 08:14 52.90938 -3.15994 5003 ft 170 kts 346°
2026-04-20 08:14 52.92060 -3.16492 5002 ft 168 kts 346°